Time;durP1;ratioP1;P1;durP2;ratioP2;P2;SDS_P1;SDS_P2;PMS_P1;PMS_P2;Temp;Humidity;BMP_temperature;BMP_pressure;BME280_temperature;BME280_humidity;BME280_pressure;Samples;Min_cycle;Max_cycle;Signal;HPM_P1;HPM_P2
2022/12/24 00:00:46;;;;;;;10.07;6.20;;;;;;;;;;5055523;28;20544;-71
2022/12/24 00:03:13;;;;;;;12.70;5.60;;;;;;;;;;5055503;28;20457;-71
2022/12/24 00:05:42;;;;;;;12.13;6.30;;;;;;;;;;5055916;28;20446;-71
2022/12/24 00:08:09;;;;;;;9.03;4.57;;;;;;;;;;5055500;28;20522;-71
2022/12/24 00:11:05;;;;;;;15.73;5.87;;;;;;;;;;5054935;28;20478;-71
2022/12/24 00:13:34;;;;;;;9.33;5.13;;;;;;;;;;5055020;28;20536;-71
2022/12/24 00:16:04;;;;;;;11.50;7.10;;;;;;;;;;5055707;28;20441;-71
2022/12/24 00:18:42;;;;;;;12.57;5.87;;;;;;;;;;5062087;28;20527;-70
2022/12/24 00:21:09;;;;;;;8.67;5.90;;;;;;;;;;5075720;28;20455;-72
2022/12/24 00:26:23;;;;;;;12.80;6.37;;;;;;;;;;5067786;28;20542;-70
2022/12/24 00:28:56;;;;;;;13.63;5.20;;;;;;;;;;5065199;28;20460;-71
2022/12/24 00:31:24;;;;;;;10.30;5.80;;;;;;;;;;5066357;28;20513;-72
2022/12/24 00:33:51;;;;;;;13.13;4.53;;;;;;;;;;5063495;28;20456;-71
2022/12/24 00:36:19;;;;;;;8.97;4.70;;;;;;;;;;5059474;28;20865;-71
2022/12/24 00:38:47;;;;;;;9.57;4.63;;;;;;;;;;5059297;28;20449;-71
2022/12/24 00:41:24;;;;;;;10.97;5.83;;;;;;;;;;5065046;28;20470;-71
2022/12/24 00:43:54;;;;;;;13.90;4.87;;;;;;;;;;5059385;28;20497;-71
2022/12/24 00:46:22;;;;;;;10.33;6.00;;;;;;;;;;5058573;28;20520;-71
2022/12/24 00:48:50;;;;;;;9.10;4.83;;;;;;;;;;5074145;28;20475;-71
2022/12/24 00:51:17;;;;;;;8.77;5.00;;;;;;;;;;5078682;28;20488;-71
2022/12/24 00:53:45;;;;;;;9.47;5.70;;;;;;;;;;5079065;28;20452;-71
2022/12/24 00:56:12;;;;;;;9.27;5.57;;;;;;;;;;5078483;28;20456;-71
2022/12/24 00:58:40;;;;;;;9.70;4.77;;;;;;;;;;5078657;28;20453;-71
2022/12/24 01:01:10;;;;;;;15.67;5.90;;;;;;;;;;5078005;28;20934;-71
2022/12/24 01:03:37;;;;;;;10.97;6.10;;;;;;;;;;5078591;28;20510;-71
2022/12/24 01:06:11;;;;;;;10.73;5.60;;;;;;;;;;5078375;28;20452;-70
2022/12/24 01:08:41;;;;;;;12.13;5.37;;;;;;;;;;5079012;28;20445;-70
2022/12/24 01:11:09;;;;;;;8.80;4.73;;;;;;;;;;5078307;28;20900;-71
2022/12/24 01:13:37;;;;;;;14.43;5.87;;;;;;;;;;5078365;28;20452;-71
2022/12/24 01:16:13;;;;;;;11.50;5.20;;;;;;;;;;5077666;28;20444;-70
2022/12/24 01:18:42;;;;;;;15.37;6.87;;;;;;;;;;5077580;28;20467;-70
2022/12/24 01:21:22;;;;;;;12.63;6.77;;;;;;;;;;5078227;28;20499;-71
2022/12/24 01:23:50;;;;;;;11.30;5.80;;;;;;;;;;5078107;28;20805;-70
2022/12/24 01:26:32;;;;;;;9.77;5.40;;;;;;;;;;5067149;28;20473;-71
2022/12/24 01:29:00;;;;;;;12.07;6.40;;;;;;;;;;5073100;28;20921;-71
2022/12/24 01:31:28;;;;;;;11.83;5.63;;;;;;;;;;5078649;28;20573;-71
2022/12/24 01:33:57;;;;;;;13.40;5.83;;;;;;;;;;5077248;28;20449;-70
2022/12/24 01:36:25;;;;;;;10.73;4.80;;;;;;;;;;5076986;28;20764;-70
2022/12/24 01:38:52;;;;;;;9.97;6.03;;;;;;;;;;5078301;28;20865;-70
2022/12/24 01:44:20;;;;;;;10.40;6.03;;;;;;;;;;5069447;28;20794;-70
2022/12/24 01:46:48;;;;;;;10.70;5.97;;;;;;;;;;5058177;28;20919;-70
2022/12/24 01:49:18;;;;;;;15.13;6.57;;;;;;;;;;5058324;28;20450;-70
2022/12/24 01:51:50;;;;;;;15.73;5.43;;;;;;;;;;5057618;28;20833;-70
2022/12/24 01:54:23;;;;;;;11.23;4.57;;;;;;;;;;5057706;28;20449;-71
2022/12/24 01:56:53;;;;;;;9.20;4.80;;;;;;;;;;5057901;28;20442;-71
2022/12/24 01:59:21;;;;;;;9.53;5.27;;;;;;;;;;5058010;28;20535;-70
2022/12/24 02:01:53;;;;;;;13.27;5.17;;;;;;;;;;5057664;28;20441;-71
2022/12/24 02:04:25;;;;;;;11.70;6.03;;;;;;;;;;5057906;28;20938;-70
2022/12/24 02:06:58;;;;;;;9.80;4.80;;;;;;;;;;5057247;28;20885;-71
2022/12/24 02:09:25;;;;;;;12.73;5.57;;;;;;;;;;5057449;28;20461;-70
2022/12/24 02:11:53;;;;;;;12.83;5.70;;;;;;;;;;5067843;28;20488;-71
2022/12/24 02:14:21;;;;;;;10.87;5.93;;;;;;;;;;5077564;28;20526;-70
2022/12/24 02:16:53;;;;;;;8.50;4.50;;;;;;;;;;5077337;28;20751;-70
2022/12/24 02:19:35;;;;;;;11.83;6.20;;;;;;;;;;5077153;28;20456;-70
2022/12/24 02:22:03;;;;;;;12.60;5.00;;;;;;;;;;5077425;28;20460;-70
2022/12/24 02:24:48;;;;;;;16.43;5.10;;;;;;;;;;5075645;28;20754;-70
2022/12/24 02:27:24;;;;;;;10.70;5.47;;;;;;;;;;5077714;28;20448;-71
2022/12/24 02:30:06;;;;;;;10.27;5.57;;;;;;;;;;5077200;28;20453;-70
2022/12/24 02:32:46;;;;;;;7.97;4.13;;;;;;;;;;5074092;28;20494;-70
2022/12/24 02:35:17;;;;;;;10.67;5.40;;;;;;;;;;5077402;28;20456;-70
2022/12/24 02:37:50;;;;;;;12.47;6.53;;;;;;;;;;5076679;28;20518;-70
2022/12/24 02:40:18;;;;;;;12.20;5.07;;;;;;;;;;5062795;28;20441;-70
2022/12/24 02:42:49;;;;;;;12.57;5.40;;;;;;;;;;5057078;28;20718;-70
2022/12/24 02:45:18;;;;;;;10.80;4.73;;;;;;;;;;5056359;28;20454;-71
2022/12/24 02:47:51;;;;;;;8.30;4.73;;;;;;;;;;5056831;28;20450;-70
2022/12/24 02:50:19;;;;;;;13.03;5.30;;;;;;;;;;5056820;28;20461;-70
2022/12/24 02:52:48;;;;;;;12.23;5.53;;;;;;;;;;5056550;28;20496;-70
2022/12/24 02:55:18;;;;;;;12.20;6.03;;;;;;;;;;5057118;28;20564;-70
2022/12/24 02:57:54;;;;;;;10.40;5.87;;;;;;;;;;5056594;28;21066;-70
2022/12/24 03:00:23;;;;;;;11.80;5.60;;;;;;;;;;5056999;28;20457;-69
2022/12/24 03:03:06;;;;;;;9.43;4.87;;;;;;;;;;5056242;28;20453;-71
2022/12/24 03:05:38;;;;;;;8.83;4.10;;;;;;;;;;5060811;28;20459;-71
2022/12/24 03:08:14;;;;;;;7.87;3.97;;;;;;;;;;5076328;28;21000;-71
2022/12/24 03:10:47;;;;;;;11.30;4.53;;;;;;;;;;5076295;28;20466;-70
2022/12/24 03:13:16;;;;;;;8.60;4.50;;;;;;;;;;5063041;28;20466;-70
2022/12/24 03:15:45;;;;;;;10.00;5.30;;;;;;;;;;5057086;28;20493;-71
2022/12/24 03:18:16;;;;;;;9.20;4.97;;;;;;;;;;5056366;28;20811;-70
2022/12/24 03:20:46;;;;;;;9.27;5.10;;;;;;;;;;5056186;28;20479;-70
2022/12/24 03:23:15;;;;;;;12.77;4.90;;;;;;;;;;5056261;28;20567;-70
2022/12/24 03:25:43;;;;;;;8.13;4.60;;;;;;;;;;5055780;28;20461;-71
2022/12/24 03:28:13;;;;;;;9.57;4.43;;;;;;;;;;5056970;28;20449;-70
2022/12/24 03:30:41;;;;;;;8.53;3.70;;;;;;;;;;5055793;28;20461;-71
2022/12/24 03:33:09;;;;;;;10.37;5.70;;;;;;;;;;5056306;28;20465;-71
2022/12/24 03:35:38;;;;;;;10.00;4.97;;;;;;;;;;5056488;28;20457;-69
2022/12/24 03:38:08;;;;;;;6.87;3.90;;;;;;;;;;5055956;28;20468;-70
2022/12/24 03:40:36;;;;;;;11.03;5.33;;;;;;;;;;5057928;28;20485;-70
2022/12/24 03:43:03;;;;;;;10.77;6.00;;;;;;;;;;5076493;28;20480;-70
2022/12/24 03:45:31;;;;;;;8.83;4.27;;;;;;;;;;5074983;28;20460;-70
2022/12/24 03:48:08;;;;;;;15.00;5.77;;;;;;;;;;5076653;28;20464;-70
2022/12/24 03:50:35;;;;;;;7.57;4.80;;;;;;;;;;5076370;28;20448;-70
2022/12/24 03:53:07;;;;;;;7.40;3.80;;;;;;;;;;5076516;28;20538;-70
2022/12/24 03:55:39;;;;;;;9.10;4.80;;;;;;;;;;5076284;28;20884;-70
2022/12/24 03:58:07;;;;;;;9.50;5.00;;;;;;;;;;5076493;28;20457;-70
2022/12/24 04:00:37;;;;;;;9.60;6.17;;;;;;;;;;5079382;28;20556;-70
2022/12/24 04:03:05;;;;;;;11.27;5.20;;;;;;;;;;5079944;28;20449;-70
2022/12/24 04:05:33;;;;;;;10.03;5.43;;;;;;;;;;5069048;28;20453;-70
2022/12/24 04:08:01;;;;;;;11.73;5.70;;;;;;;;;;5059297;28;20461;-70
2022/12/24 04:10:29;;;;;;;15.03;7.83;;;;;;;;;;5059595;28;20457;-70
2022/12/24 04:12:57;;;;;;;10.37;4.50;;;;;;;;;;5059985;28;20815;-70
2022/12/24 04:15:25;;;;;;;8.77;4.70;;;;;;;;;;5059610;28;20479;-70
2022/12/24 04:17:52;;;;;;;11.40;4.97;;;;;;;;;;5059746;28;20472;-70
2022/12/24 04:20:20;;;;;;;10.20;6.00;;;;;;;;;;5059752;28;20457;-70
2022/12/24 04:22:47;;;;;;;8.13;4.57;;;;;;;;;;5059602;28;20457;-70
2022/12/24 04:25:15;;;;;;;8.37;4.70;;;;;;;;;;5059621;28;20540;-70
2022/12/24 04:27:44;;;;;;;10.03;4.70;;;;;;;;;;5062507;28;20800;-70
2022/12/24 04:30:12;;;;;;;8.43;4.83;;;;;;;;;;5071948;28;20517;-70
2022/12/24 04:32:42;;;;;;;11.67;4.20;;;;;;;;;;5077750;28;20507;-71
2022/12/24 04:35:10;;;;;;;10.10;4.93;;;;;;;;;;5059936;28;20460;-70
2022/12/24 04:37:38;;;;;;;8.73;5.60;;;;;;;;;;5059323;28;20908;-70
2022/12/24 04:40:06;;;;;;;12.10;5.37;;;;;;;;;;5059725;28;20467;-70
2022/12/24 04:42:34;;;;;;;6.53;4.17;;;;;;;;;;5059413;28;20469;-70
2022/12/24 04:45:03;;;;;;;8.77;5.30;;;;;;;;;;5058784;28;20465;-70
2022/12/24 04:47:31;;;;;;;12.67;6.27;;;;;;;;;;5059164;28;20449;-71
2022/12/24 04:50:00;;;;;;;9.90;5.97;;;;;;;;;;5058849;28;20514;-71
2022/12/24 04:52:28;;;;;;;9.63;4.97;;;;;;;;;;5058542;28;20743;-70
2022/12/24 04:54:55;;;;;;;8.77;5.10;;;;;;;;;;5058480;28;20465;-70
2022/12/24 04:57:41;;;;;;;9.83;4.30;;;;;;;;;;5059428;28;20457;-70
2022/12/24 05:00:12;;;;;;;9.23;4.93;;;;;;;;;;5061602;28;20514;-70
2022/12/24 05:02:39;;;;;;;7.27;4.47;;;;;;;;;;5078326;28;20490;-70
2022/12/24 05:05:07;;;;;;;10.63;5.17;;;;;;;;;;5079064;28;20456;-70
2022/12/24 05:07:35;;;;;;;12.80;4.90;;;;;;;;;;5078551;28;20849;-70
2022/12/24 05:10:03;;;;;;;9.90;5.00;;;;;;;;;;5078939;28;20460;-70
2022/12/24 05:12:30;;;;;;;10.27;5.60;;;;;;;;;;5078474;28;20521;-70
2022/12/24 05:14:58;;;;;;;7.43;4.47;;;;;;;;;;5078386;28;20547;-71
2022/12/24 05:17:27;;;;;;;11.43;5.33;;;;;;;;;;5078288;28;20456;-71
2022/12/24 05:19:55;;;;;;;10.47;5.50;;;;;;;;;;5077397;28;20552;-70
2022/12/24 05:28:06;;;;;;;10.57;5.60;;;;;;;;;;5050577;28;20567;-70
2022/12/24 05:30:38;;;;;;;9.87;4.90;;;;;;;;;;5078494;28;20463;-70
2022/12/24 05:33:07;;;;;;;11.23;4.90;;;;;;;;;;5078096;28;20570;-70
2022/12/24 05:35:35;;;;;;;13.10;5.03;;;;;;;;;;5077699;28;20547;-70
2022/12/24 05:38:03;;;;;;;12.10;5.70;;;;;;;;;;5078464;28;20465;-70
2022/12/24 05:40:30;;;;;;;11.57;4.67;;;;;;;;;;5077871;28;20851;-70
2022/12/24 05:42:58;;;;;;;7.63;4.30;;;;;;;;;;5078062;28;20468;-70
2022/12/24 05:45:29;;;;;;;10.00;4.33;;;;;;;;;;5077705;28;20464;-70
2022/12/24 05:47:56;;;;;;;7.87;4.20;;;;;;;;;;5076327;28;20488;-70
2022/12/24 05:50:27;;;;;;;8.13;4.73;;;;;;;;;;5077600;28;20484;-70
2022/12/24 05:52:55;;;;;;;7.27;4.30;;;;;;;;;;5077421;28;20822;-70
2022/12/24 05:55:23;;;;;;;7.97;4.20;;;;;;;;;;5077519;28;20452;-70
2022/12/24 05:57:50;;;;;;;9.90;4.50;;;;;;;;;;5061475;28;20476;-70
2022/12/24 06:00:18;;;;;;;8.00;4.20;;;;;;;;;;5057170;28;20452;-70
2022/12/24 06:02:46;;;;;;;8.10;4.20;;;;;;;;;;5057185;28;20453;-70
2022/12/24 06:05:13;;;;;;;8.17;4.23;;;;;;;;;;5057152;28;20449;-70
2022/12/24 06:07:42;;;;;;;8.03;4.20;;;;;;;;;;5057615;28;20457;-70
2022/12/24 06:10:10;;;;;;;8.40;3.83;;;;;;;;;;5057614;28;20449;-70
2022/12/24 06:12:38;;;;;;;9.27;4.40;;;;;;;;;;5057286;28;20489;-70
2022/12/24 06:15:06;;;;;;;10.73;4.80;;;;;;;;;;5057078;28;20477;-70
2022/12/24 06:17:34;;;;;;;7.20;4.17;;;;;;;;;;5057789;28;20457;-70
2022/12/24 06:20:01;;;;;;;5.97;3.73;;;;;;;;;;5057129;28;20518;-70
2022/12/24 06:22:29;;;;;;;8.13;3.90;;;;;;;;;;5056486;28;20449;-70
2022/12/24 06:24:58;;;;;;;8.20;3.90;;;;;;;;;;5064587;28;20461;-70
2022/12/24 06:27:26;;;;;;;7.43;3.90;;;;;;;;;;5076918;28;21175;-70
2022/12/24 06:29:53;;;;;;;10.53;4.30;;;;;;;;;;5076731;28;20860;-69
2022/12/24 06:32:21;;;;;;;6.80;3.67;;;;;;;;;;5076259;28;20488;-70
2022/12/24 06:34:49;;;;;;;10.37;4.23;;;;;;;;;;5076732;28;20709;-71
2022/12/24 06:37:18;;;;;;;7.07;3.90;;;;;;;;;;5076384;28;20460;-70
2022/12/24 06:39:46;;;;;;;6.77;3.63;;;;;;;;;;5076390;28;20449;-70
2022/12/24 06:42:17;;;;;;;6.90;3.90;;;;;;;;;;5076730;28;20476;-70
2022/12/24 06:44:45;;;;;;;9.40;3.90;;;;;;;;;;5076518;28;20460;-70
2022/12/24 06:47:13;;;;;;;7.67;4.40;;;;;;;;;;5076445;28;20479;-70
2022/12/24 06:49:42;;;;;;;6.90;3.23;;;;;;;;;;5070887;28;20454;-71
2022/12/24 06:52:10;;;;;;;9.47;3.90;;;;;;;;;;5057420;28;20481;-71
2022/12/24 06:54:38;;;;;;;7.97;3.83;;;;;;;;;;5056396;28;20457;-70
2022/12/24 06:57:08;;;;;;;10.30;4.70;;;;;;;;;;5056076;28;20468;-70
2022/12/24 06:59:40;;;;;;;6.90;4.13;;;;;;;;;;5056103;28;20501;-70
2022/12/24 07:02:08;;;;;;;7.63;4.07;;;;;;;;;;5055773;28;20873;-70
2022/12/24 07:04:35;;;;;;;5.13;2.97;;;;;;;;;;5065612;28;20472;-70
2022/12/24 07:07:03;;;;;;;6.93;3.50;;;;;;;;;;5056283;28;20465;-70
2022/12/24 07:09:30;;;;;;;6.33;3.60;;;;;;;;;;5056305;28;20466;-70
2022/12/24 07:11:58;;;;;;;6.30;4.00;;;;;;;;;;5055907;28;20476;-71
2022/12/24 07:14:30;;;;;;;6.33;3.83;;;;;;;;;;5058194;28;20535;-71
2022/12/24 07:17:00;;;;;;;7.67;4.10;;;;;;;;;;5056193;28;20496;-71
2022/12/24 07:19:27;;;;;;;7.50;3.83;;;;;;;;;;5055873;28;20467;-70
2022/12/24 07:21:55;;;;;;;7.00;4.50;;;;;;;;;;5068576;28;20781;-71
2022/12/24 07:24:23;;;;;;;11.60;4.20;;;;;;;;;;5056842;28;20479;-71
2022/12/24 07:26:52;;;;;;;8.00;4.50;;;;;;;;;;5075608;28;20547;-70
2022/12/24 07:29:20;;;;;;;6.20;3.20;;;;;;;;;;5076012;28;20854;-70
2022/12/24 07:31:50;;;;;;;7.63;4.27;;;;;;;;;;5060248;28;20461;-70
2022/12/24 07:34:21;;;;;;;8.60;4.03;;;;;;;;;;5064938;28;20460;-71
2022/12/24 07:36:51;;;;;;;6.57;3.90;;;;;;;;;;5080866;28;20456;-70
2022/12/24 07:39:19;;;;;;;6.27;3.20;;;;;;;;;;5081106;28;20452;-70
2022/12/24 07:41:49;;;;;;;6.50;3.57;;;;;;;;;;5078943;28;20892;-70
2022/12/24 07:44:17;;;;;;;7.60;4.10;;;;;;;;;;5062008;28;20484;-70
2022/12/24 07:46:44;;;;;;;7.40;4.30;;;;;;;;;;5059737;28;20886;-70
2022/12/24 07:49:12;;;;;;;5.33;4.03;;;;;;;;;;5062927;28;20461;-70
2022/12/24 07:51:44;;;;;;;6.57;3.70;;;;;;;;;;5061971;28;20465;-70
2022/12/24 07:54:12;;;;;;;5.57;3.40;;;;;;;;;;5068184;28;20480;-70
2022/12/24 07:56:45;;;;;;;10.30;6.07;;;;;;;;;;5063125;28;20475;-71
2022/12/24 07:59:20;;;;;;;6.47;3.33;;;;;;;;;;5066065;28;20946;-72
2022/12/24 08:01:48;;;;;;;7.07;5.23;;;;;;;;;;5074672;28;20463;-70
2022/12/24 08:04:15;;;;;;;6.07;3.73;;;;;;;;;;5076740;28;20899;-71
2022/12/24 08:06:43;;;;;;;5.97;2.97;;;;;;;;;;5079332;28;20525;-70
2022/12/24 08:09:14;;;;;;;5.27;2.60;;;;;;;;;;5069266;28;20469;-71
2022/12/24 08:11:41;;;;;;;5.37;3.40;;;;;;;;;;5065745;28;20456;-71
2022/12/24 08:14:10;;;;;;;11.03;6.10;;;;;;;;;;5079625;28;20495;-71
2022/12/24 08:16:41;;;;;;;6.40;4.30;;;;;;;;;;5065134;28;20561;-71
2022/12/24 08:19:09;;;;;;;4.53;2.60;;;;;;;;;;5061319;28;20865;-70
2022/12/24 08:21:36;;;;;;;4.70;2.97;;;;;;;;;;5058933;28;20469;-70
2022/12/24 08:24:05;;;;;;;5.60;2.97;;;;;;;;;;5058802;28;20445;-70
2022/12/24 08:26:34;;;;;;;5.33;3.33;;;;;;;;;;5068335;28;20471;-70
2022/12/24 08:29:02;;;;;;;6.20;4.50;;;;;;;;;;5072558;28;20744;-70
2022/12/24 08:31:30;;;;;;;5.23;3.17;;;;;;;;;;5069965;28;20459;-70
2022/12/24 08:34:00;;;;;;;4.53;2.73;;;;;;;;;;5065197;28;20542;-71
2022/12/24 08:36:28;;;;;;;7.60;4.10;;;;;;;;;;5058785;28;21067;-71
2022/12/24 08:38:57;;;;;;;6.77;4.17;;;;;;;;;;5061629;28;20499;-70
2022/12/24 08:41:25;;;;;;;4.80;2.90;;;;;;;;;;5059326;28;20564;-70
2022/12/24 08:43:54;;;;;;;4.30;2.30;;;;;;;;;;5057768;28;20472;-70
2022/12/24 08:46:22;;;;;;;4.40;2.50;;;;;;;;;;5072581;28;20819;-70
2022/12/24 08:48:49;;;;;;;5.10;2.77;;;;;;;;;;5064922;28;20464;-70
2022/12/24 08:51:31;;;;;;;4.30;3.83;;;;;;;;;;5061607;28;20526;-70
2022/12/24 08:53:59;;;;;;;6.17;3.67;;;;;;;;;;5056873;28;20492;-71
2022/12/24 08:56:33;;;;;;;7.23;3.60;;;;;;;;;;5057670;28;20449;-70
2022/12/24 08:59:13;;;;;;;4.23;2.53;;;;;;;;;;5057510;28;20457;-70
2022/12/24 09:01:40;;;;;;;6.67;3.73;;;;;;;;;;5056906;28;20512;-71
2022/12/24 09:04:14;;;;;;;6.47;3.87;;;;;;;;;;5059965;28;20464;-70
2022/12/24 09:06:43;;;;;;;4.87;3.63;;;;;;;;;;5058282;28;20461;-71
2022/12/24 09:09:10;;;;;;;6.70;3.33;;;;;;;;;;5064336;28;20452;-71
2022/12/24 09:11:38;;;;;;;5.83;3.90;;;;;;;;;;5076531;28;20459;-71
2022/12/24 09:14:10;;;;;;;5.73;3.90;;;;;;;;;;5059881;28;20752;-70
2022/12/24 09:16:38;;;;;;;7.90;6.10;;;;;;;;;;5062046;28;20456;-71
2022/12/24 09:19:07;;;;;;;13.87;6.30;;;;;;;;;;5069226;28;20725;-71
2022/12/24 09:21:34;;;;;;;10.57;4.63;;;;;;;;;;5076910;28;20460;-70
2022/12/24 09:24:04;;;;;;;7.70;5.10;;;;;;;;;;5055986;28;20454;-71
2022/12/24 09:26:32;;;;;;;7.30;4.50;;;;;;;;;;5064508;28;20864;-70
2022/12/24 09:29:02;;;;;;;7.37;4.20;;;;;;;;;;5055479;28;20473;-71
2022/12/24 09:31:31;;;;;;;7.03;4.33;;;;;;;;;;5064870;28;20897;-70
2022/12/24 09:33:59;;;;;;;10.40;5.87;;;;;;;;;;5059679;28;20508;-70
2022/12/24 09:36:27;;;;;;;7.47;4.37;;;;;;;;;;5072560;28;21122;-70
2022/12/24 09:38:54;;;;;;;14.80;6.60;;;;;;;;;;5068378;28;20856;-70
2022/12/24 09:41:32;;;;;;;7.63;4.50;;;;;;;;;;5062497;28;20532;-70
2022/12/24 09:44:01;;;;;;;8.07;5.03;;;;;;;;;;5058267;28;20453;-70
2022/12/24 09:46:31;;;;;;;9.23;4.57;;;;;;;;;;5062205;28;20480;-71
2022/12/24 09:49:03;;;;;;;6.40;4.30;;;;;;;;;;5056145;28;20518;-70
2022/12/24 09:51:37;;;;;;;7.30;4.70;;;;;;;;;;5055586;28;20556;-70
2022/12/24 09:54:06;;;;;;;6.00;4.10;;;;;;;;;;5061185;28;20800;-70
2022/12/24 09:56:41;;;;;;;6.17;4.67;;;;;;;;;;5061746;28;20469;-71
2022/12/24 09:59:19;;;;;;;7.50;6.03;;;;;;;;;;5071500;28;20520;-70
2022/12/24 10:04:48;;;;;;;6.97;4.60;;;;;;;;;;5072083;28;20460;-70
2022/12/24 10:07:26;;;;;;;5.93;4.67;;;;;;;;;;5075886;28;20459;-70
2022/12/24 10:10:10;;;;;;;10.83;6.20;;;;;;;;;;5055583;28;20455;-71
2022/12/24 10:12:48;;;;;;;9.60;4.70;;;;;;;;;;5066709;28;20750;-71
2022/12/24 10:15:24;;;;;;;8.47;5.43;;;;;;;;;;5055135;28;20883;-70
2022/12/24 10:18:05;;;;;;;6.90;5.60;;;;;;;;;;5055105;28;20465;-71
2022/12/24 10:20:40;;;;;;;7.20;4.40;;;;;;;;;;5055575;28;20472;-70
2022/12/24 10:23:16;;;;;;;7.13;4.77;;;;;;;;;;5055025;28;20457;-71
2022/12/24 10:25:58;;;;;;;8.10;5.27;;;;;;;;;;5054816;28;20844;-70
2022/12/24 10:28:30;;;;;;;6.90;4.90;;;;;;;;;;5054174;28;20477;-71
2022/12/24 10:31:01;;;;;;;8.60;5.27;;;;;;;;;;5067184;28;20901;-71
2022/12/24 10:33:39;;;;;;;6.07;4.70;;;;;;;;;;5057821;28;20512;-71
2022/12/24 10:36:17;;;;;;;10.23;6.10;;;;;;;;;;5054751;28;20496;-72
2022/12/24 10:38:46;;;;;;;6.53;4.20;;;;;;;;;;5059047;28;20456;-71
2022/12/24 10:41:28;;;;;;;8.43;4.87;;;;;;;;;;5064211;28;20466;-70
2022/12/24 10:46:58;;;;;;;7.30;5.37;;;;;;;;;;5054381;28;20528;-70
2022/12/24 10:49:31;;;;;;;11.60;6.03;;;;;;;;;;5068980;28;20464;-70
2022/12/24 10:52:07;;;;;;;9.63;5.30;;;;;;;;;;5062674;28;20469;-70
2022/12/24 10:55:01;;;;;;;9.10;6.80;;;;;;;;;;5054632;28;20493;-71
2022/12/24 10:57:41;;;;;;;10.07;5.60;;;;;;;;;;5057803;28;20460;-70
2022/12/24 11:00:19;;;;;;;10.63;6.13;;;;;;;;;;5073779;28;20781;-70
2022/12/24 11:02:48;;;;;;;11.00;7.20;;;;;;;;;;5070193;28;20907;-69
2022/12/24 11:05:43;;;;;;;12.43;6.13;;;;;;;;;;5072639;28;20463;-71
2022/12/24 11:08:25;;;;;;;8.57;6.27;;;;;;;;;;5054013;28;20470;-71
2022/12/24 11:11:13;;;;;;;12.53;7.77;;;;;;;;;;5054154;28;20466;-71
2022/12/24 11:13:44;;;;;;;16.37;9.03;;;;;;;;;;5054788;28;20486;-71
2022/12/24 11:16:17;;;;;;;15.73;7.60;;;;;;;;;;5064294;28;20469;-71
2022/12/24 11:18:57;;;;;;;15.07;7.90;;;;;;;;;;5053802;28;20918;-71
2022/12/24 11:21:52;;;;;;;14.40;6.93;;;;;;;;;;5060398;28;20885;-71
2022/12/24 11:24:27;;;;;;;8.30;6.53;;;;;;;;;;5061909;28;20476;-71
2022/12/24 11:27:16;;;;;;;12.33;7.10;;;;;;;;;;5057331;28;20496;-72
2022/12/24 11:29:45;;;;;;;11.07;7.77;;;;;;;;;;5052419;28;20461;-71
2022/12/24 11:32:39;;;;;;;14.33;8.40;;;;;;;;;;5059602;28;20760;-71
2022/12/24 11:35:19;;;;;;;12.83;7.07;;;;;;;;;;5053910;28;20568;-70
2022/12/24 11:38:09;;;;;;;10.87;6.37;;;;;;;;;;5082251;28;20798;-71
2022/12/24 11:40:40;;;;;;;14.43;7.80;;;;;;;;;;5093966;28;20458;-71
2022/12/24 11:43:08;;;;;;;15.13;10.27;;;;;;;;;;5056796;28;20484;-70
2022/12/24 11:45:36;;;;;;;13.93;8.00;;;;;;;;;;5061937;28;20460;-70
2022/12/24 11:48:08;;;;;;;15.43;8.17;;;;;;;;;;5067815;28;20461;-71
2022/12/24 11:50:36;;;;;;;24.50;10.40;;;;;;;;;;5053312;28;20877;-70
2022/12/24 11:53:08;;;;;;;53.97;29.63;;;;;;;;;;5054117;28;20544;-70
2022/12/24 11:55:41;;;;;;;39.63;18.03;;;;;;;;;;5057520;28;21075;-71
2022/12/24 11:58:18;;;;;;;33.83;17.33;;;;;;;;;;5058526;28;20454;-71
2022/12/24 12:00:46;;;;;;;26.93;14.60;;;;;;;;;;5054622;28;20457;-70
2022/12/24 12:03:22;;;;;;;24.23;12.10;;;;;;;;;;5058725;28;20523;-71
2022/12/24 12:06:01;;;;;;;21.23;11.33;;;;;;;;;;5055613;28;20457;-71
2022/12/24 12:08:36;;;;;;;13.87;8.70;;;;;;;;;;5069418;28;20478;-70
2022/12/24 12:11:11;;;;;;;22.50;13.13;;;;;;;;;;5051797;28;20469;-71
2022/12/24 12:13:42;;;;;;;11.87;8.17;;;;;;;;;;5070716;28;20992;-70
2022/12/24 12:16:15;;;;;;;19.00;10.60;;;;;;;;;;5060488;28;20483;-71
2022/12/24 12:18:46;;;;;;;19.20;9.57;;;;;;;;;;5055791;28;20476;-70
2022/12/24 12:21:20;;;;;;;17.30;8.03;;;;;;;;;;5060928;28;20484;-71
2022/12/24 12:24:06;;;;;;;21.13;8.70;;;;;;;;;;5060335;28;20457;-71
2022/12/24 12:27:06;;;;;;;;;;;;;;;;;;;;;
2022/12/24 12:29:48;;;;;;;22.37;7.07;;;;;;;;;;5055923;28;20471;-71
2022/12/24 12:32:25;;;;;;;16.10;6.03;;;;;;;;;;5067947;28;20544;-71
2022/12/24 12:35:02;;;;;;;22.63;8.27;;;;;;;;;;5057389;28;20577;-70
2022/12/24 12:37:51;;;;;;;19.50;8.33;;;;;;;;;;5056236;28;20453;-70
2022/12/24 12:40:20;;;;;;;14.17;5.50;;;;;;;;;;5044742;28;20460;-70
2022/12/24 12:42:59;;;;;;;20.90;7.00;;;;;;;;;;5058386;28;20473;-71
2022/12/24 12:45:55;;;;;;;;;;;;;;;;;;;;;
2022/12/24 12:48:34;;;;;;;14.87;6.93;;;;;;;;;;5057798;28;20864;-70
2022/12/24 12:51:12;;;;;;;12.43;5.33;;;;;;;;;;5065169;28;20463;-70
2022/12/24 12:53:51;;;;;;;18.53;6.10;;;;;;;;;;5096984;28;20435;-71
2022/12/24 12:56:35;;;;;;;18.63;6.30;;;;;;;;;;5068621;28;20560;-71
2022/12/24 12:59:15;;;;;;;20.30;6.47;;;;;;;;;;5057431;28;20473;-71
2022/12/24 13:05:14;;;;;;;13.77;5.73;;;;;;;;;;5056905;28;20553;-70
2022/12/24 13:07:49;;;;;;;13.97;5.40;;;;;;;;;;5055652;28;20480;-70
2022/12/24 13:10:48;;;;;;;15.97;5.90;;;;;;;;;;5056615;28;20878;-71
2022/12/24 13:13:37;;;;;;;13.07;6.10;;;;;;;;;;5030478;28;20454;-71
2022/12/24 13:16:26;;;;;;;18.17;6.97;;;;;;;;;;5072016;28;20932;-71
2022/12/24 13:21:52;;;;;;;27.50;7.07;;;;;;;;;;5062201;28;20472;-71
2022/12/24 13:24:31;;;;;;;14.47;5.90;;;;;;;;;;5056299;28;20564;-70
2022/12/24 13:27:23;;;;;;;18.67;8.63;;;;;;;;;;5056255;28;20465;-70
2022/12/24 13:29:59;;;;;;;18.60;5.60;;;;;;;;;;5069447;28;20547;-71
2022/12/24 13:32:48;;;;;;;20.13;5.17;;;;;;;;;;5065850;28;20719;-71
2022/12/24 13:35:36;;;;;;;17.50;6.47;;;;;;;;;;5056061;28;20513;-70
2022/12/24 13:38:22;;;;;;;21.33;6.20;;;;;;;;;;5058996;28;20628;-70
2022/12/24 13:41:30;;;;;;;14.30;5.70;;;;;;;;;;5057289;28;20492;-70
2022/12/24 13:44:14;;;;;;;12.83;5.10;;;;;;;;;;5056283;28;20968;-71
2022/12/24 13:46:59;;;;;;;22.17;6.20;;;;;;;;;;5049159;28;20453;-70
2022/12/24 13:49:46;;;;;;;18.63;6.93;;;;;;;;;;5056908;28;20446;-71
2022/12/24 13:52:21;;;;;;;14.57;5.30;;;;;;;;;;5073343;28;20456;-70
2022/12/24 13:55:15;;;;;;;18.50;7.17;;;;;;;;;;5056210;28;20481;-70
2022/12/24 13:57:53;;;;;;;17.13;7.40;;;;;;;;;;5046267;28;20560;-70
2022/12/24 14:00:50;;;;;;;21.93;6.80;;;;;;;;;;5062628;28;20494;-70
2022/12/24 14:03:30;;;;;;;22.13;7.07;;;;;;;;;;5058546;28;20446;-70
2022/12/24 14:06:01;;;;;;;15.63;6.93;;;;;;;;;;5055166;28;20834;-70
2022/12/24 14:08:32;;;;;;;16.03;6.20;;;;;;;;;;5064755;28;21039;-70
2022/12/24 14:11:04;;;;;;;18.73;6.47;;;;;;;;;;5060417;28;20535;-70
2022/12/24 14:13:54;;;;;;;19.53;6.67;;;;;;;;;;5065919;28;20564;-70
2022/12/24 14:16:40;;;;;;;18.57;6.93;;;;;;;;;;5070225;28;20473;-70
2022/12/24 14:19:16;;;;;;;23.00;6.63;;;;;;;;;;5061811;28;20432;-70
2022/12/24 14:21:57;;;;;;;30.07;7.60;;;;;;;;;;5054305;28;20885;-70
2022/12/24 14:24:46;;;;;;;26.23;9.40;;;;;;;;;;5053155;28;20440;-70
2022/12/24 14:27:38;;;;;;;27.93;7.47;;;;;;;;;;5053187;28;20460;-70
2022/12/24 14:30:09;;;;;;;16.60;7.70;;;;;;;;;;5054252;28;20438;-70
2022/12/24 14:32:50;;;;;;;16.53;7.47;;;;;;;;;;5053560;28;21106;-69
2022/12/24 14:35:44;;;;;;;19.60;8.90;;;;;;;;;;5082156;28;20540;-70
2022/12/24 14:38:20;;;;;;;17.03;7.67;;;;;;;;;;5036738;28;20452;-70
2022/12/24 14:41:01;;;;;;;14.83;7.83;;;;;;;;;;5073304;28;20452;-71
2022/12/24 14:47:13;;;;;;;19.70;8.13;;;;;;;;;;5030105;28;20452;-71
2022/12/24 14:50:11;;;;;;;22.63;7.20;;;;;;;;;;5065334;28;20468;-70
2022/12/24 14:52:46;;;;;;;27.23;9.30;;;;;;;;;;5073750;28;20467;-69
2022/12/24 14:55:33;;;;;;;20.43;9.67;;;;;;;;;;5057323;28;20485;-70
2022/12/24 14:58:19;;;;;;;17.37;7.73;;;;;;;;;;5072835;28;20448;-69
2022/12/24 15:00:48;;;;;;;22.43;9.50;;;;;;;;;;5073670;28;20491;-69
2022/12/24 15:03:34;;;;;;;19.30;7.47;;;;;;;;;;5062312;28;20476;-70
2022/12/24 15:09:16;;;;;;;20.93;9.93;;;;;;;;;;5034913;28;20446;-71
2022/12/24 15:11:44;;;;;;;29.30;12.80;;;;;;;;;;5064151;28;20451;-71
2022/12/24 15:14:13;;;;;;;19.23;8.70;;;;;;;;;;5075119;28;20452;-71
2022/12/24 15:16:41;;;;;;;35.37;10.37;;;;;;;;;;5061697;28;20735;-70
2022/12/24 15:19:16;;;;;;;20.03;9.27;;;;;;;;;;5070903;28;20469;-71
2022/12/24 15:21:44;;;;;;;23.93;8.70;;;;;;;;;;5055794;28;20476;-71
2022/12/24 15:24:38;;;;;;;28.33;7.70;;;;;;;;;;5073700;28;20467;-71
2022/12/24 15:27:15;;;;;;;19.87;7.80;;;;;;;;;;5071832;28;20460;-71
2022/12/24 15:29:44;;;;;;;24.80;8.17;;;;;;;;;;5057484;28;20457;-70
2022/12/24 15:32:13;;;;;;;16.03;6.50;;;;;;;;;;5060897;28;20914;-70
2022/12/24 15:34:42;;;;;;;20.33;7.90;;;;;;;;;;5058184;28;20516;-70
2022/12/24 15:37:13;;;;;;;15.60;7.13;;;;;;;;;;5058961;28;20476;-70
2022/12/24 15:39:42;;;;;;;21.03;7.20;;;;;;;;;;5093924;28;20464;-70
2022/12/24 15:42:14;;;;;;;20.97;7.03;;;;;;;;;;5081044;28;20464;-70